WEATHER DATA

TODAY
Time Temp. Dewp. Hum. Bar.
00:08 25.3 15.3 54 1019.7
00:19 24.9 15.2 55 1019.9
00:28 24.6 15.2 56 1019.9
00:38 24.4 15.3 57 1019.7
00:49 24.2 15.2 57 1019.9
00:59 24 15.2 58 1019.8
01:09 23.6 14.9 58 1019.8
01:18 23.4 14.9 59 1019.9
01:29 23.2 15 60 1019.8
01:39 23 14.8 60 1019.9
01:49 22.8 14.9 61 1019.8
01:59 22.6 14.7 61 1019.8
02:09 22.4 14.8 62 1019.7
02:19 22.1 14.5 62 1019.6
02:29 22 14.6 63 1019.8
02:40 21.8 14.5 63 1019.6
02:49 21.6 14.5 64 1019.7
02:59 21.4 14.3 64 1019.8
03:10 21.2 14.4 65 1019.8
03:20 21 14.2 65 1019.8
03:29 20.7 13.9 65 1019.9
03:39 20.4 13.8 66 1019.7
03:50 20.1 13.8 67 1020
04:10 19.9 13.6 67 1019.7
04:20 19.9 13.6 67 1019.9
04:30 19.9 13.6 67 1019.9
04:40 19.8 13.5 67 1019.8
04:50 19.7 13.6 68 1019.7
05:00 19.5 13.4 68 1019.6
05:10 19.3 13.3 68 1019.6
05:20 19.1 13.3 69 1019.8
05:31 19.1 13.3 69 1019.7
05:40 18.9 13.1 69 1019.7
05:50 18.8 13 69 1019.7
06:00 18.7 12.9 69 1019.8
06:11 18.6 12.8 69 1019.7
06:21 18.6 13 70 1019.8
06:30 18.5 12.9 70 1019.9
06:51 18.3 12.7 70 1020
07:01 18.2 12.6 70 1019.8
07:11 18.1 12.8 71 1020
07:21 18.1 12.8 71 1020
07:31 18.1 12.8 71 1020
07:41 18.1 12.8 71 1020.1
07:52 18.3 13.2 72 1020.1
08:01 18.5 13.4 72 1020
08:11 18.8 13.4 71 1020
08:21 19.1 13.5 70 1020.1
08:32 19.9 14.9 73 1020.3
08:41 21.2 15.5 70 1020.3
08:51 21.3 14 63 1020.2
09:02 20.5 14.2 67 1020.2
09:12 20.3 14.7 70 1020.2
09:22 20.2 14.6 70 1020.1
09:32 20.4 14.5 69 1020.3
09:42 20.6 14.7 69 1020.3
09:52 20.8 14.2 66 1020.1
10:02 21 14.2 65 1020.1
10:12 21.2 14.1 64 1020.1
10:22 21.5 13.9 62 1020.3
10:32 21.7 13.9 61 1020.2
10:42 21.9 14 61 1020.1
10:52 22.1 14.2 61 1020.1
11:02 22.5 14.4 60 1020
11:12 22.8 14.1 58 1019.9
11:23 23.1 14.1 57 1019.8
11:33 23.3 14 56 1019.8
11:42 23.7 14.1 55 1019.7
11:53 23.9 14.3 55 1019.8
12:03 24.2 14.3 54 1019.7
12:13 24.4 14.2 53 1019.9
12:22 24.7 14.2 52 1019.6
12:43 25.2 14.4 51 1019.6
12:53 25.4 14.5 51 1019.7
13:03 25.6 14.4 50 1019.6
13:13 25.7 14.2 49 1019.3
13:33 26.2 14.3 48 1019.3
13:44 26.4 14.2 47 1019.1
14:03 27.3 15 47 1019
14:13 27.5 14.2 44 1018.9
14:24 27.5 14.5 45 1018.8
14:34 28 15 45 1018.7
14:43 28.1 15.1 45 1018.7
14:54 28.4 15 44 1018.5
15:04 28.8 15.3 44 1018.5
15:14 28.9 14.7 42 1018.3
15:24 29.1 14.9 42 1018.2
15:34 29.3 14.3 40 1018.3
15:44 29.7 14.3 39 1017.9
15:54 29.7 13.9 38 1017.8
16:05 30 14.1 38 1017.6
16:14 30.3 14 37 1017.6
16:24 30.5 13.8 36 1017.6
16:34 30.9 14.5 37 1017.6
16:45 31.2 14.4 36 1017.4
16:54 31.4 14.1 35 1017.2
17:04 31.5 14.2 35 1017.2
17:15 31.5 13.7 34 1017
17:25 31.8 14.5 35 1017
17:35 32 14.2 34 1016.9
17:45 32.2 13.9 33 1016.7
17:55 32 13.7 33 1016.8
18:05 32 13.3 32 1016.8
18:15 31.9 13.2 32 1016.8
18:25 31.8 13.1 32 1016.7
18:35 31.8 13.6 33 1016.7
18:45 31.7 14.4 35 1016.6
18:55 31.3 14.9 37 1016.6
19:06 31.4 15 37 1016.7
19:15 31.3 14.5 36 1016.6
19:25 31.3 14.5 36 1016.8
19:36 31.2 14.4 36 1016.8
19:46 30.8 14.4 37 1016.5
19:55 30.9 14.9 38 1016.6

DAY STATISTIC

2018-08-20
TEMPERATURE
AVERAGE
24.3
HIGH
32.2
17:45
LOW
18.1
07:11
PRESSURE
AVERAGE
1019.1
HIGH
1020.3
08:32
LOW
1016.5
19:46
DEWPOINT
AVERAGE
14.1
HIGH
15.5
08:41
LOW
12.6
07:01
HUMIDITY
AVERAGE
55
HIGH
73
08:32
LOW
32
18:05
TEMPERATURE (°C)
LOW
18.1
HIGH
32.2
AVERAGE
24.3
PRESSURE (hpa)
LOW
1016.5
HIGH
1020.3
AVERAGE
1019.1
DEVICE